Gaz Dynamic — V7WY2 — position and weather

sailwx.info

Track history (hours):
 
Tides and Currents Weather Stations Pressure Air Temp Water Temp Dewpoint Dewpoint Depression Visibility Wind Speed Wind Dir Waves Ship Positions

Gaz Dynamic

Last reported at 2018-Jul-15 02:35 UTC. Time now 2018-Jul-20 10:47 UTC.
Position N 36°48' E 023°43'.

Length 117 m; draft 5.2 m.

Type: Tanker. MMSI: 538004420.

Date/timePositionNaut miles runAvg speedWind from/ knotsBaromVisibWave heightAir tempDewpointWater temp
2018-Jul-15 02:35N 36°48' E 023°43'115.3
2018-Jul-15 02:30N 36°49' E 023°43'815.4
2018-Jul-15 02:00N 36°56' E 023°43'1515.4
2018-Jul-15 01:00N 37°12' E 023°43'715.0
2018-Jul-15 00:30N 37°19' E 023°43'714.6
2018-Jul-15 00:00N 37°27' E 023°43'714.7
2018-Jul-14 23:30N 37°34' E 023°44'714.7
2018-Jul-14 23:00N 37°41' E 023°42'714.9
2018-Jul-14 22:30N 37°48' E 023°38'612.8
2018-Jul-14 22:00N 37°53' E 023°34'1 1.0
2018-Jul-14 21:29N 37°54' E 023°33'0 0.0
2018-Jul-14 20:59N 37°54' E 023°33'0 0.0
2018-Jul-14 20:29N 37°54' E 023°33'0 0.0
2018-Jul-14 19:59N 37°54' E 023°33'0 0.0
2018-Jul-14 19:29N 37°54' E 023°33'0 0.0
2018-Jul-14 18:59N 37°54' E 023°33'0 0.0
2018-Jul-14 18:29N 37°54' E 023°33'0 0.0
2018-Jul-14 17:59N 37°54' E 023°33'0 0.0
2018-Jul-14 17:29N 37°54' E 023°33'0 0.0
2018-Jul-14 16:59N 37°54' E 023°33'0 0.0
2018-Jul-14 16:29N 37°54' E 023°33'0 0.0
2018-Jul-14 15:59N 37°54' E 023°33'0 0.0
2018-Jul-14 15:29N 37°54' E 023°33'0 0.0
2018-Jul-14 14:59N 37°54' E 023°33'0 0.0
2018-Jul-14 14:29N 37°54' E 023°33'3 2.6
2018-Jul-14 13:31N 37°53' E 023°36'612.1
2018-Jul-14 13:00N 37°48' E 023°41'612.2
2018-Jul-14 12:30N 37°42' E 023°44'612.8
2018-Jul-14 12:00N 37°36' E 023°48'2015.0
2018-Jul-14 10:38N 37°16' E 023°42'  
2018-Jul-08 01:28N 32°23' E 030°20'7713.8
2018-Jul-07 19:55N 31°52' E 031°43'513.2
2018-Jul-07 19:31N 31°50' E 031°49'1013.1
2018-Jul-07 18:47N 31°45' E 031°59'613.2
2018-Jul-07 18:19N 31°41' E 032°04'413.5
2018-Jul-07 18:00N 31°38' E 032°08'713.2
2018-Jul-07 17:30N 31°34' E 032°13'612.5
2018-Jul-07 17:01N 31°31' E 032°20'611.5
2018-Jul-07 16:30N 31°27' E 032°25'610.8
2018-Jul-07 15:58N 31°21' E 032°23'610.8
2018-Jul-07 15:24N 31°15' E 032°21'  
Track history (hours):
 
Tides and Currents Weather Stations Pressure Air Temp Water Temp Dewpoint Dewpoint Depression Visibility Wind Speed Wind Dir Waves Ship Positions

Gaz Dynamic

Last reported at 2018-Jul-15 02:35 UTC. Time now 2018-Jul-20 10:47 UTC.
Position N 36°48' E 023°43'.

Length 117 m; draft 5.2 m.

Type: Tanker. MMSI: 538004420.

Date/timePositionNaut miles runAvg speedWind from/ knotsBaromVisibWave heightAir tempDewpointWater temp
2018-Jul-15 02:35N 36°48' E 023°43'115.3
2018-Jul-15 02:30N 36°49' E 023°43'815.4
2018-Jul-15 02:00N 36°56' E 023°43'1515.4
2018-Jul-15 01:00N 37°12' E 023°43'715.0
2018-Jul-15 00:30N 37°19' E 023°43'714.6
2018-Jul-15 00:00N 37°27' E 023°43'714.7
2018-Jul-14 23:30N 37°34' E 023°44'714.7
2018-Jul-14 23:00N 37°41' E 023°42'714.9
2018-Jul-14 22:30N 37°48' E 023°38'612.8
2018-Jul-14 22:00N 37°53' E 023°34'1 1.0
2018-Jul-14 21:29N 37°54' E 023°33'0 0.0
2018-Jul-14 20:59N 37°54' E 023°33'0 0.0
2018-Jul-14 20:29N 37°54' E 023°33'0 0.0
2018-Jul-14 19:59N 37°54' E 023°33'0 0.0
2018-Jul-14 19:29N 37°54' E 023°33'0 0.0
2018-Jul-14 18:59N 37°54' E 023°33'0 0.0
2018-Jul-14 18:29N 37°54' E 023°33'0 0.0
2018-Jul-14 17:59N 37°54' E 023°33'0 0.0
2018-Jul-14 17:29N 37°54' E 023°33'0 0.0
2018-Jul-14 16:59N 37°54' E 023°33'0 0.0
2018-Jul-14 16:29N 37°54' E 023°33'0 0.0
2018-Jul-14 15:59N 37°54' E 023°33'0 0.0
2018-Jul-14 15:29N 37°54' E 023°33'0 0.0
2018-Jul-14 14:59N 37°54' E 023°33'0 0.0
2018-Jul-14 14:29N 37°54' E 023°33'3 2.6
2018-Jul-14 13:31N 37°53' E 023°36'612.1
2018-Jul-14 13:00N 37°48' E 023°41'612.2
2018-Jul-14 12:30N 37°42' E 023°44'612.8
2018-Jul-14 12:00N 37°36' E 023°48'2015.0
2018-Jul-14 10:38N 37°16' E 023°42'  
2018-Jul-08 01:28N 32°23' E 030°20'7713.8
2018-Jul-07 19:55N 31°52' E 031°43'513.2
2018-Jul-07 19:31N 31°50' E 031°49'1013.1
2018-Jul-07 18:47N 31°45' E 031°59'613.2
2018-Jul-07 18:19N 31°41' E 032°04'413.5
2018-Jul-07 18:00N 31°38' E 032°08'713.2
2018-Jul-07 17:30N 31°34' E 032°13'612.5
2018-Jul-07 17:01N 31°31' E 032°20'611.5
2018-Jul-07 16:30N 31°27' E 032°25'610.8
2018-Jul-07 15:58N 31°21' E 032°23'610.8
2018-Jul-07 15:24N 31°15' E 032°21'  

Dump ship's entire track history